Flight Track Log - Related Links

Times and Time Zones

All times are in EDT time to prevent confusion due to time zone crossing. See the N830W flight status page for this flight to view local times or setup timezone preferences in your user account.

Time Position Orientation Groundspeed Altitude Reporting Facility
EDT Latitude Longitude Course Direction KTS MPH feet Rate Location/Type
Thu 01:20:45 PM 42.3681 -73.5192 288° West 139 160 4,900  Level Boston Center
Thu 01:21:46 PM 42.3822 -73.5644 293° West 138 159 4,400 -248 Descending Boston Center
Thu 01:22:46 PM 42.3922 -73.6094 287° West 121 139 4,400  Level Boston Center
Thu 01:23:47 PM 42.4003 -73.6492 285° West 112 129 4,400 49 Level Boston Center
Thu 01:24:48 PM 42.4122 -73.6972 289° West 115 132 4,500 99 Climbing Boston Center
Thu 01:25:48 PM 42.4200 -73.7339 286° West 112 129 4,600 50 Climbing Boston Center
Thu 01:26:00 PM 42.3181 -73.9654 288° West  Level Estimated
Thu 01:26:49 PM 42.4300 -73.7761 288° West 113 130 4,600  Level Boston Center
Thu 01:27:50 PM 42.4419 -73.8186 291° West 118 136 4,600  Level Boston Center
Thu 01:28:50 PM 42.4519 -73.8583 289° West 120 138 4,600 50 Level Boston Center
Thu 01:29:51 PM 42.4619 -73.9008 288° West 116 133 4,700 98 Climbing Boston Center
Thu 01:30:52 PM 42.4739 -73.9431 291° West 115 132 4,800 -50 Climbing Boston Center
Thu 01:31:52 PM 42.4858 -73.9858 291° West 116 133 4,600 -50 Descending Boston Center
Thu 01:32:53 PM 42.4997 -74.0228 297° West 113 130 4,700  Climbing Boston Center
Thu 01:33:54 PM 42.5097 -74.0625 289° West 114 131 4,600  Descending Boston Center
Thu 01:34:54 PM 42.5217 -74.1022 292° West 113 130 4,700 248 Climbing Boston Center
Thu 01:35:55 PM 42.5378 -74.1364 303° West 101 116 5,100 492 Climbing Boston Center
Thu 01:36:56 PM 42.5500 -74.1650 300° West 87 100 5,700 541 Climbing Boston Center
Thu 01:37:57 PM 42.5619 -74.1933 300° West 79 91 6,200 469 Climbing Boston Center
Thu 01:39:04 PM 42.5739 -74.2247 297° West 84 97 6,700 331 Climbing Boston Center
Thu 01:40:04 PM 42.5797 -74.2589 283° West 96 110 6,900 198 Climbing Boston Center
Thu 01:41:05 PM 42.5811 -74.2956 273° West 96 110 7,100 248 Climbing Boston Center
Thu 01:42:05 PM 42.5764 -74.3319 260° West 95 109 7,400 298 Climbing Boston Center
Thu 01:43:06 PM 42.5778 -74.3658 273° West 98 113 7,700 278 Climbing Boston Center
Thu 01:43:53 PM 42.5814 -74.3997 278° West 101 116 7,900 222 Climbing Boston Center
Thu 01:44:54 PM 42.5892 -74.4367 286° West 100 115 8,100 198 Climbing Boston Center
Thu 01:45:54 PM 42.5947 -74.4708 282° West 100 115 8,300 248 Climbing Boston Center
Thu 01:46:55 PM 42.6025 -74.5078 286° West 98 113 8,600 197 Climbing Boston Center
Thu 01:47:56 PM 42.6058 -74.5472 277° West 104 120 8,700 99 Climbing Boston Center
Thu 01:48:56 PM 42.6136 -74.5872 285° West 106 122 8,800 99 Climbing Boston Center
Thu 01:49:57 PM 42.6169 -74.6239 277° West 105 121 8,900 49 Climbing Boston Center
Thu 01:50:58 PM 42.6244 -74.6692 283° West 107 123 8,900  Level Boston Center
Thu 01:51:58 PM 42.6319 -74.7092 284° West 111 128 8,900  Level Boston Center
Thu 01:52:59 PM 42.6417 -74.7489 288° West 111 128 8,900  Level Boston Center
Thu 01:54:00 PM 42.6514 -74.7861 290° West 112 129 8,900  Level Boston Center
Thu 01:55:00 PM 42.6631 -74.8261 292° West 114 131 8,900  Level Boston Center
Thu 01:56:01 PM 42.6725 -74.8686 287° West 111 128 8,900  Level Boston Center
Thu 01:57:01 PM 42.6822 -74.9058 290° West 111 128 8,900 50 Level Boston Center
Thu 01:58:02 PM 42.6917 -74.9458 288° West 111 128 9,000 49 Climbing Boston Center
Thu 01:59:03 PM 42.6969 -74.9883 280° West 110 127 9,000 -50 Level Boston Center
Thu 02:00:03 PM 42.7022 -75.0308 280° West 110 127 8,900 -50 Descending Boston Center
Thu 02:01:04 PM 42.7075 -75.0708 280° West 112 129 8,900 49 Level Boston Center
Thu 02:02:05 PM 42.7150 -75.1133 284° West 115 132 9,000 50 Climbing Boston Center
Thu 02:03:05 PM 42.7181 -75.1589 275° West 115 132 9,000  Level Boston Center
Thu 02:04:06 PM 42.7211 -75.2014 276° West 115 132 9,000 49 Level Boston Center
Thu 02:05:07 PM 42.7244 -75.2439 276° West 115 132 9,100 50 Climbing Boston Center
Thu 02:06:07 PM 42.7314 -75.2894 282° West 116 133 9,100 -50 Level Boston Center
Thu 02:07:08 PM 42.7389 -75.3294 284° West 115 132 9,000 -49 Descending Boston Center
Thu 02:08:09 PM 42.7461 -75.3722 283° West 113 130 9,000  Level Boston Center
Thu 02:09:09 PM 42.7492 -75.4147 276° West 113 130 9,000  Level Boston Center
Thu 02:10:10 PM 42.7522 -75.4572 276° West 112 129 9,000  Level Boston Center
Thu 02:11:10 PM 42.7511 -75.4997 268° West 112 129 9,000 50 Level Boston Center
Thu 02:12:11 PM 42.7542 -75.5422 276° West 111 128 9,100  Climbing Boston Center
Thu 02:13:12 PM 42.7592 -75.5819 280° West 112 129 9,000 -47 Descending Boston Center
Thu 02:14:19 PM 42.7661 -75.6306 281° West 111 128 9,000 -47 Level Boston Center
Thu 02:15:19 PM 42.7733 -75.6733 283° West 113 130 8,900  Descending Boston Center
Thu 02:16:20 PM 42.7806 -75.7133 284° West 113 130 9,000 50 Climbing Boston Center
Thu 02:17:20 PM 42.7878 -75.7533 284° West 112 129 9,000  Level Boston Center
Thu 02:18:21 PM 42.7928 -75.7961 279° West 112 129 9,000  Level Boston Center
Thu 02:19:22 PM 42.7978 -75.8389 279° West 111 128 9,000 99 Level Boston Center
Thu 02:20:22 PM 42.8047 -75.8817 282° West 107 123 9,200 99 Climbing Boston Center
Thu 02:21:23 PM 42.8097 -75.9217 280° West 108 124 9,200 49 Level Boston Center
Thu 02:22:24 PM 42.8128 -75.9642 276° West 109 125 9,300 99 Climbing Boston Center
Thu 02:23:24 PM 42.8178 -76.0042 280° West 110 127 9,400 33 Climbing Boston Center
Thu 02:25:26 PM 42.8319 -76.0842 284° West 113 130 9,400  Level Boston Center
Thu 02:26:26 PM 42.8389 -76.1272 282° West 114 131 9,400 -50 Level Boston Center
Thu 02:27:27 PM 42.8436 -76.1700 279° West 115 132 9,300 -50 Descending Boston Center
Thu 02:28:27 PM 42.8506 -76.2156 282° West 114 131 9,300  Level Boston Center
Thu 02:29:22 PM 42.8578 -76.2500 286° West 114 131 9,300  Level Boston Center
Thu 02:30:23 PM 42.8625 -76.2928 279° West 111 128 9,300 -50 Level Boston Center
Thu 02:31:23 PM 42.8733 -76.3389 288° West 114 131 9,200 -47 Descending Boston Center
Thu 02:32:30 PM 42.8803 -76.3819 282° West 114 131 9,200 47 Level Boston Center
Thu 02:33:31 PM 42.8872 -76.4247 283° West 117 135 9,300  Climbing Boston Center
Thu 02:34:31 PM 42.8917 -76.4706 278° West 116 133 9,200 -50 Descending Boston Center
Thu 02:35:32 PM 42.8986 -76.5136 282° West 117 135 9,200  Level Boston Center
Thu 02:36:33 PM 42.9011 -76.5561 275° West 115 132 9,200 50 Level Boston Center
Thu 02:37:33 PM 42.9100 -76.6022 285° West 114 131 9,300 99 Climbing Boston Center
Thu 02:38:34 PM 42.9189 -76.6425 287° West 108 124 9,400 118 Climbing Boston Center
Thu 02:39:15 PM 42.9233 -76.6644 285° West 110 127 9,500 59 Climbing Cleveland Center
Thu 02:40:16 PM 42.9308 -76.7036 285° West 110 127 9,500  Level Cleveland Center
Thu 02:41:17 PM 42.9406 -76.7486 286° West 114 131 9,500  Level Cleveland Center
Thu 02:42:17 PM 42.9503 -76.7906 288° West 114 131 9,500 52 Level Cleveland Center
Thu 02:43:12 PM 42.9578 -76.8269 286° West 109 125 9,600 52 Climbing Cleveland Center
Thu 02:44:13 PM 42.9633 -76.8692 280° West 110 127 9,600 -149 Level Cleveland Center
Thu 02:45:13 PM 42.9772 -76.9136 293° West 127 146 9,300 -496 Descending Cleveland Center
Thu 02:46:14 PM 42.9975 -76.9581 302° West 134 154 8,600 -694 Descending Cleveland Center
Thu 02:47:14 PM 43.0175 -77.0022 302° West 141 162 7,900 -446 Descending Cleveland Center
Thu 02:48:15 PM 43.0314 -77.0497 292° West 134 154 7,700 -541 Descending Cleveland Center
Thu 02:49:16 PM 43.0228 -77.1014 257° West 144 166 6,800 -1,190 Descending Cleveland Center
Thu 02:50:16 PM 43.0161 -77.1586 261° West 149 171 5,300 -1,388 Descending Cleveland Center
Thu 02:51:17 PM 43.0050 -77.2103 254° West 142 163 4,000 -934 Descending Cleveland Center
Thu 02:52:18 PM 43.0022 -77.2614 266° West 120 138 3,400 -446 Descending Cleveland Center
Thu 02:53:18 PM 42.9994 -77.3042 265° West 114 131 3,100 -198 Descending Cleveland Center
Thu 02:54:19 PM 43.0006 -77.3497 272° West 116 133 3,000 -98 Descending Cleveland Center
Thu 02:55:20 PM 43.0019 -77.3922 273° West 115 132 2,900 -149 Descending Cleveland Center
Thu 02:56:20 PM 43.0011 -77.4378 269° West 120 138 2,700 -198 Descending Cleveland Center
Thu 02:57:21 PM 43.0022 -77.4831 272° West 117 135 2,500 -99 Descending Cleveland Center
Thu 02:58:21 PM 42.9992 -77.5286 265° West 118 136 2,500 50 Level Cleveland Center
Thu 02:59:22 PM 42.9981 -77.5656 268° West 112 129 2,600 -246 Climbing Cleveland Center
Thu 03:00:23 PM 43.0200 -77.6072 306° West 130 150 2,000 -496 Descending Cleveland Center
Thu 03:01:23 PM 43.0417 -77.6403 312° West 113 130 1,600 -298 Descending Cleveland Center
Thu 03:02:24 PM 43.0675 -77.6644 326° Northwest 100 115 1,400 -197 Descending Cleveland Center

Login

Don't have an account? Register now (free) for customized features, flight alerts, and more!